sensor_id;sensor_type;location;lat;lon;timestamp;pressure;altitude;pressure_sealevel;temperature;humidity
56514;BME280;62152;52.078;8.414;2023-04-25T00:02:50;99323.09;;;19.12;50.34
56514;BME280;62152;52.078;8.414;2023-04-25T00:06:51;99321.53;;;19.11;50.28
56514;BME280;62152;52.078;8.414;2023-04-25T00:10:52;99325.06;;;19.11;50.19
56514;BME280;62152;52.078;8.414;2023-04-25T00:14:53;99324.28;;;19.11;49.99
56514;BME280;62152;52.078;8.414;2023-04-25T00:18:56;99322.69;;;19.10;50.44
56514;BME280;62152;52.078;8.414;2023-04-25T00:22:57;99330.94;;;19.10;50.16
56514;BME280;62152;52.078;8.414;2023-04-25T00:26:57;99328.19;;;19.10;49.98
56514;BME280;62152;52.078;8.414;2023-04-25T00:30:58;99326.63;;;19.09;50.66
56514;BME280;62152;52.078;8.414;2023-04-25T00:35:01;99323.09;;;19.08;50.15
56514;BME280;62152;52.078;8.414;2023-04-25T00:39:02;99328.19;;;19.10;50.45
56514;BME280;62152;52.078;8.414;2023-04-25T00:43:03;99325.84;;;19.08;50.46
56514;BME280;62152;52.078;8.414;2023-04-25T00:47:05;99317.59;;;19.08;50.04
56514;BME280;62152;52.078;8.414;2023-04-25T00:51:15;99322.31;;;19.08;50.55
56514;BME280;62152;52.078;8.414;2023-04-25T00:55:20;99320.72;;;19.07;50.37
56514;BME280;62152;52.078;8.414;2023-04-25T00:59:21;99316.00;;;19.07;50.10
56514;BME280;62152;52.078;8.414;2023-04-25T01:03:22;99316.81;;;19.08;49.97
56514;BME280;62152;52.078;8.414;2023-04-25T01:07:24;99317.19;;;19.06;50.55
56514;BME280;62152;52.078;8.414;2023-04-25T01:11:26;99316.81;;;19.08;50.56
56514;BME280;62152;52.078;8.414;2023-04-25T01:15:27;99317.19;;;19.06;49.94
56514;BME280;62152;52.078;8.414;2023-04-25T01:19:28;99312.47;;;19.07;50.07
56514;BME280;62152;52.078;8.414;2023-04-25T01:23:32;99322.69;;;19.06;50.07
56514;BME280;62152;52.078;8.414;2023-04-25T01:27:33;99325.44;;;19.06;50.71
56514;BME280;62152;52.078;8.414;2023-04-25T01:31:36;99321.91;;;19.06;50.28
56514;BME280;62152;52.078;8.414;2023-04-25T01:35:37;99327.41;;;19.06;49.90
56514;BME280;62152;52.078;8.414;2023-04-25T01:39:39;99323.09;;;19.05;50.38
56514;BME280;62152;52.078;8.414;2023-04-25T01:43:41;99341.53;;;19.04;50.48
56514;BME280;62152;52.078;8.414;2023-04-25T01:47:42;99340.38;;;19.05;50.33
56514;BME280;62152;52.078;8.414;2023-04-25T01:51:43;99343.13;;;19.05;50.09
56514;BME280;62152;52.078;8.414;2023-04-25T01:55:46;99346.25;;;19.04;49.89
56514;BME280;62152;52.078;8.414;2023-04-25T01:59:49;99355.28;;;19.04;50.39
56514;BME280;62152;52.078;8.414;2023-04-25T02:04:09;99351.75;;;19.04;49.91
56514;BME280;62152;52.078;8.414;2023-04-25T02:08:13;99357.25;;;19.04;50.21
56514;BME280;62152;52.078;8.414;2023-04-25T02:12:16;99358.03;;;19.04;50.47
56514;BME280;62152;52.078;8.414;2023-04-25T02:16:35;99369.44;;;19.03;50.44
56514;BME280;62152;52.078;8.414;2023-04-25T02:20:36;99367.47;;;19.03;50.40
56514;BME280;62152;52.078;8.414;2023-04-25T02:24:38;99366.69;;;19.03;50.00
56514;BME280;62152;52.078;8.414;2023-04-25T02:28:40;99376.88;;;19.02;50.14
56514;BME280;62152;52.078;8.414;2023-04-25T02:32:41;99379.25;;;19.04;50.52
56514;BME280;62152;52.078;8.414;2023-04-25T02:36:43;99374.50;;;19.01;50.08
56514;BME280;62152;52.078;8.414;2023-04-25T02:40:44;99373.72;;;19.00;50.01
56514;BME280;62152;52.078;8.414;2023-04-25T02:44:46;99382.75;;;19.01;50.41
56514;BME280;62152;52.078;8.414;2023-04-25T02:48:47;99379.22;;;19.00;50.06
56514;BME280;62152;52.078;8.414;2023-04-25T02:52:48;99376.47;;;19.00;49.76
56514;BME280;62152;52.078;8.414;2023-04-25T02:56:53;99383.94;;;19.00;50.02
56514;BME280;62152;52.078;8.414;2023-04-25T03:01:01;99380.00;;;19.01;49.97
56514;BME280;62152;52.078;8.414;2023-04-25T03:05:02;99381.19;;;19.00;49.93
56514;BME280;62152;52.078;8.414;2023-04-25T03:09:04;99383.94;;;19.00;49.92
56514;BME280;62152;52.078;8.414;2023-04-25T03:13:05;99383.16;;;18.99;50.16
56514;BME280;62152;52.078;8.414;2023-04-25T03:17:07;99380.41;;;18.99;50.06
56514;BME280;62152;52.078;8.414;2023-04-25T03:21:09;99392.97;;;19.00;50.28
56514;BME280;62152;52.078;8.414;2023-04-25T03:25:10;99389.84;;;18.98;49.88
56514;BME280;62152;52.078;8.414;2023-04-25T03:29:11;99397.28;;;18.98;50.46
56514;BME280;62152;52.078;8.414;2023-04-25T03:33:15;99398.06;;;18.98;50.46
56514;BME280;62152;52.078;8.414;2023-04-25T03:37:16;99398.47;;;18.97;50.41
56514;BME280;62152;52.078;8.414;2023-04-25T03:41:17;99411.03;;;18.98;49.87
56514;BME280;62152;52.078;8.414;2023-04-25T03:45:21;99413.00;;;18.97;50.26
56514;BME280;62152;52.078;8.414;2023-04-25T03:49:24;99416.91;;;18.96;50.09
56514;BME280;62152;52.078;8.414;2023-04-25T03:53:34;99431.44;;;18.97;49.96
56514;BME280;62152;52.078;8.414;2023-04-25T03:57:53;99441.66;;;19.03;50.76
56514;BME280;62152;52.078;8.414;2023-04-25T04:01:55;99440.88;;;19.03;50.43
56514;BME280;62152;52.078;8.414;2023-04-25T04:05:57;99440.09;;;18.04;48.57
56514;BME280;62152;52.078;8.414;2023-04-25T04:09:58;99451.03;;;17.94;45.94
56514;BME280;62152;52.078;8.414;2023-04-25T04:14:05;99459.13;;;18.49;48.43
56514;BME280;62152;52.078;8.414;2023-04-25T04:18:07;99461.59;;;18.68;47.32
56514;BME280;62152;52.078;8.414;2023-04-25T04:22:09;99460.06;;;18.78;47.15
56514;BME280;62152;52.078;8.414;2023-04-25T04:26:11;99474.19;;;18.83;47.33
56514;BME280;62152;52.078;8.414;2023-04-25T04:30:22;99471.84;;;18.85;47.09
56514;BME280;62152;52.078;8.414;2023-04-25T04:34:31;99476.94;;;18.87;47.60
56514;BME280;62152;52.078;8.414;2023-04-25T04:38:33;99484.81;;;18.89;46.90
56514;BME280;62152;52.078;8.414;2023-04-25T04:42:37;99483.63;;;18.90;47.49
56514;BME280;62152;52.078;8.414;2023-04-25T04:46:56;99490.72;;;18.91;47.76
56514;BME280;62152;52.078;8.414;2023-04-25T04:51:16;99493.06;;;18.92;47.74
56514;BME280;62152;52.078;8.414;2023-04-25T04:55:32;99495.03;;;18.92;47.90
56514;BME280;62152;52.078;8.414;2023-04-25T04:59:59;99504.06;;;18.92;48.21
56514;BME280;62152;52.078;8.414;2023-04-25T05:04:29;99504.84;;;18.93;47.68
56514;BME280;62152;52.078;8.414;2023-04-25T05:09:00;99502.88;;;18.93;48.44
56514;BME280;62152;52.078;8.414;2023-04-25T05:13:14;99516.59;;;18.93;48.24
56514;BME280;62152;52.078;8.414;2023-04-25T05:17:42;99522.88;;;18.94;48.48
56514;BME280;62152;52.078;8.414;2023-04-25T05:22:02;99523.72;;;18.94;47.97
56514;BME280;62152;52.078;8.414;2023-04-25T05:26:12;99527.25;;;18.95;48.10
56514;BME280;62152;52.078;8.414;2023-04-25T05:30:26;99535.47;;;18.95;48.08
56514;BME280;62152;52.078;8.414;2023-04-25T05:34:37;99533.88;;;18.94;48.20
56514;BME280;62152;52.078;8.414;2023-04-25T05:38:40;99532.72;;;18.95;48.45
56514;BME280;62152;52.078;8.414;2023-04-25T05:42:48;99541.75;;;18.95;48.30
56514;BME280;62152;52.078;8.414;2023-04-25T05:47:02;99541.38;;;18.97;48.24
56514;BME280;62152;52.078;8.414;2023-04-25T05:51:26;99546.88;;;18.97;48.54
56514;BME280;62152;52.078;8.414;2023-04-25T05:55:40;99555.09;;;18.97;48.78
56514;BME280;62152;52.078;8.414;2023-04-25T05:59:56;99563.34;;;18.97;48.70
56514;BME280;62152;52.078;8.414;2023-04-25T06:04:04;99561.78;;;18.99;48.80
56514;BME280;62152;52.078;8.414;2023-04-25T06:08:07;99569.25;;;18.99;48.34
56514;BME280;62152;52.078;8.414;2023-04-25T06:12:08;99584.16;;;18.98;49.05
56514;BME280;62152;52.078;8.414;2023-04-25T06:16:09;99574.75;;;18.99;48.42
56514;BME280;62152;52.078;8.414;2023-04-25T06:20:12;99579.44;;;18.98;48.55
56514;BME280;62152;52.078;8.414;2023-04-25T06:24:14;99587.31;;;19.00;48.49
56514;BME280;62152;52.078;8.414;2023-04-25T06:28:15;99592.78;;;19.00;48.46
56514;BME280;62152;52.078;8.414;2023-04-25T06:32:17;99586.50;;;18.99;48.86
56514;BME280;62152;52.078;8.414;2023-04-25T06:36:19;99597.50;;;18.99;49.08
56514;BME280;62152;52.078;8.414;2023-04-25T06:40:23;99603.78;;;19.00;48.71
56514;BME280;62152;52.078;8.414;2023-04-25T06:44:24;99602.63;;;19.01;49.19
56514;BME280;62152;52.078;8.414;2023-04-25T06:48:27;99606.19;;;19.01;48.51
56514;BME280;62152;52.078;8.414;2023-04-25T06:52:29;99608.53;;;19.03;49.10
56514;BME280;62152;52.078;8.414;2023-04-25T06:56:30;99606.97;;;19.02;48.70
56514;BME280;62152;52.078;8.414;2023-04-25T07:00:38;99617.56;;;19.03;48.76
56514;BME280;62152;52.078;8.414;2023-04-25T07:04:39;99614.81;;;19.03;48.51
56514;BME280;62152;52.078;8.414;2023-04-25T07:08:41;99615.59;;;19.04;48.66
56514;BME280;62152;52.078;8.414;2023-04-25T07:12:42;99628.16;;;19.05;48.87
56514;BME280;62152;52.078;8.414;2023-04-25T07:16:43;99631.31;;;19.07;48.67
56514;BME280;62152;52.078;8.414;2023-04-25T07:20:45;99636.81;;;19.07;48.74
56514;BME280;62152;52.078;8.414;2023-04-25T07:24:48;99644.25;;;19.06;49.19
56514;BME280;62152;52.078;8.414;2023-04-25T07:28:49;99641.50;;;19.06;48.65
56514;BME280;62152;52.078;8.414;2023-04-25T07:32:50;99642.31;;;19.07;49.13
56514;BME280;62152;52.078;8.414;2023-04-25T07:36:51;99645.03;;;19.07;48.55
56514;BME280;62152;52.078;8.414;2023-04-25T07:40:54;99654.06;;;19.07;49.25
56514;BME280;62152;52.078;8.414;2023-04-25T07:44:55;99646.66;;;19.08;49.16
56514;BME280;62152;52.078;8.414;2023-04-25T07:48:57;99656.47;;;19.09;49.17
56514;BME280;62152;52.078;8.414;2023-04-25T07:52:58;99656.06;;;19.10;48.94
56514;BME280;62152;52.078;8.414;2023-04-25T07:57:09;99655.69;;;19.12;49.11
56514;BME280;62152;52.078;8.414;2023-04-25T08:01:11;99662.75;;;19.13;48.52
56514;BME280;62152;52.078;8.414;2023-04-25T08:05:23;99661.19;;;19.12;48.74
56514;BME280;62152;52.078;8.414;2023-04-25T08:09:32;99667.84;;;19.14;48.97
56514;BME280;62152;52.078;8.414;2023-04-25T08:13:35;99680.81;;;19.14;48.51
56514;BME280;62152;52.078;8.414;2023-04-25T08:17:35;99687.91;;;19.15;48.56
56514;BME280;62152;52.078;8.414;2023-04-25T08:21:36;99687.09;;;19.14;49.17
56514;BME280;62152;52.078;8.414;2023-04-25T08:25:41;99689.06;;;19.14;48.76
56514;BME280;62152;52.078;8.414;2023-04-25T08:29:46;99700.06;;;19.14;48.74
56514;BME280;62152;52.078;8.414;2023-04-25T08:33:48;99702.81;;;19.14;49.21
56514;BME280;62152;52.078;8.414;2023-04-25T08:38:06;99713.44;;;19.16;48.65
56514;BME280;62152;52.078;8.414;2023-04-25T08:42:07;99722.47;;;19.16;48.93
56514;BME280;62152;52.078;8.414;2023-04-25T08:46:11;99709.91;;;19.15;48.92
56514;BME280;62152;52.078;8.414;2023-04-25T08:50:35;99721.66;;;19.12;48.75
56514;BME280;62152;52.078;8.414;2023-04-25T08:54:37;99723.22;;;19.13;48.71
56514;BME280;62152;52.078;8.414;2023-04-25T08:58:43;99734.66;;;19.15;48.58
56514;BME280;62152;52.078;8.414;2023-04-25T09:02:47;99736.56;;;19.14;49.14
56514;BME280;62152;52.078;8.414;2023-04-25T09:06:48;99737.78;;;19.17;48.94
56514;BME280;62152;52.078;8.414;2023-04-25T09:10:49;99742.50;;;19.17;48.95
56514;BME280;62152;52.078;8.414;2023-04-25T09:15:05;99751.53;;;19.17;49.16
56514;BME280;62152;52.078;8.414;2023-04-25T09:19:31;99758.22;;;19.20;48.91
56514;BME280;62152;52.078;8.414;2023-04-25T09:23:39;99754.28;;;19.17;48.67
56514;BME280;62152;52.078;8.414;2023-04-25T09:27:50;99755.03;;;19.14;48.62
56514;BME280;62152;52.078;8.414;2023-04-25T09:32:11;99766.41;;;19.12;49.00
56514;BME280;62152;52.078;8.414;2023-04-25T09:36:13;99776.25;;;19.13;48.62
56514;BME280;62152;52.078;8.414;2023-04-25T09:40:41;99780.56;;;19.11;49.21
56514;BME280;62152;52.078;8.414;2023-04-25T09:44:52;99785.25;;;19.10;48.71
56514;BME280;62152;52.078;8.414;2023-04-25T09:48:53;99788.41;;;19.09;49.17
56514;BME280;62152;52.078;8.414;2023-04-25T09:53:04;99793.13;;;19.08;48.91
56514;BME280;62152;52.078;8.414;2023-04-25T09:57:17;99799.75;;;19.07;48.82
56514;BME280;62152;52.078;8.414;2023-04-25T10:01:21;99810.38;;;19.09;48.88
56514;BME280;62152;52.078;8.414;2023-04-25T10:05:37;99805.69;;;19.09;49.02
56514;BME280;62152;52.078;8.414;2023-04-25T10:09:40;99811.97;;;19.10;49.15
56514;BME280;62152;52.078;8.414;2023-04-25T10:13:44;99810.41;;;19.12;48.59
56514;BME280;62152;52.078;8.414;2023-04-25T10:17:46;99805.69;;;19.13;48.89
56514;BME280;62152;52.078;8.414;2023-04-25T10:21:52;99810.44;;;19.16;49.11
56514;BME280;62152;52.078;8.414;2023-04-25T10:25:59;99821.44;;;19.16;48.70
56514;BME280;62152;52.078;8.414;2023-04-25T10:30:01;99824.19;;;19.16;48.85
56514;BME280;62152;52.078;8.414;2023-04-25T10:34:04;99813.19;;;19.20;49.18
56514;BME280;62152;52.078;8.414;2023-04-25T10:38:09;99817.56;;;19.24;48.28
56514;BME280;62152;52.078;8.414;2023-04-25T10:42:12;99814.41;;;19.22;48.42
56514;BME280;62152;52.078;8.414;2023-04-25T10:46:15;99817.13;;;19.19;48.91
56514;BME280;62152;52.078;8.414;2023-04-25T10:50:17;99812.75;;;19.14;48.50
56514;BME280;62152;52.078;8.414;2023-04-25T10:54:18;99822.19;;;19.13;49.07
56514;BME280;62152;52.078;8.414;2023-04-25T10:58:22;99824.53;;;19.11;48.64
56514;BME280;62152;52.078;8.414;2023-04-25T11:02:26;99835.53;;;19.11;49.07
56514;BME280;62152;52.078;8.414;2023-04-25T11:06:36;99841.44;;;19.13;48.67
56514;BME280;62152;52.078;8.414;2023-04-25T11:10:40;99843.44;;;19.16;48.93
56514;BME280;62152;52.078;8.414;2023-04-25T11:14:43;99834.41;;;19.19;48.65
56514;BME280;62152;52.078;8.414;2023-04-25T11:18:44;99830.09;;;19.18;49.14
56514;BME280;62152;52.078;8.414;2023-04-25T11:22:46;99836.34;;;19.15;49.00
56514;BME280;62152;52.078;8.414;2023-04-25T11:26:47;99834.34;;;19.12;48.98
56514;BME280;62152;52.078;8.414;2023-04-25T11:30:49;99855.94;;;19.10;48.80
56514;BME280;62152;52.078;8.414;2023-04-25T11:34:52;99860.66;;;19.09;49.01
56514;BME280;62152;52.078;8.414;2023-04-25T11:38:53;99865.38;;;19.12;49.28
56514;BME280;62152;52.078;8.414;2023-04-25T11:42:54;99861.47;;;19.13;48.73
56514;BME280;62152;52.078;8.414;2023-04-25T11:46:57;99870.13;;;19.16;49.37
56514;BME280;62152;52.078;8.414;2023-04-25T11:51:00;99872.50;;;19.17;48.67
56514;BME280;62152;52.078;8.414;2023-04-25T11:55:01;99873.28;;;19.18;48.79
56514;BME280;62152;52.078;8.414;2023-04-25T11:59:03;99873.28;;;19.18;48.95
56514;BME280;62152;52.078;8.414;2023-04-25T12:03:09;99875.66;;;19.19;48.60
56514;BME280;62152;52.078;8.414;2023-04-25T12:07:10;99877.22;;;19.20;49.22
56514;BME280;62152;52.078;8.414;2023-04-25T12:11:20;99881.97;;;19.23;49.00
56514;BME280;62152;52.078;8.414;2023-04-25T12:15:24;99873.28;;;19.21;48.38
56514;BME280;62152;52.078;8.414;2023-04-25T12:19:32;99876.03;;;19.21;48.50
56514;BME280;62152;52.078;8.414;2023-04-25T12:23:34;99879.19;;;19.20;48.99
56514;BME280;62152;52.078;8.414;2023-04-25T12:27:39;99878.78;;;19.18;48.81
56514;BME280;62152;52.078;8.414;2023-04-25T12:31:40;99885.47;;;19.20;49.01
56514;BME280;62152;52.078;8.414;2023-04-25T12:35:42;99881.97;;;19.23;48.89
56514;BME280;62152;52.078;8.414;2023-04-25T12:39:43;99880.41;;;19.26;49.02
56514;BME280;62152;52.078;8.414;2023-04-25T12:43:44;99870.19;;;19.26;48.70
56514;BME280;62152;52.078;8.414;2023-04-25T12:47:45;99872.56;;;19.28;48.95
56514;BME280;62152;52.078;8.414;2023-04-25T12:51:47;99874.91;;;19.22;48.63
56514;BME280;62152;52.078;8.414;2023-04-25T12:55:48;99872.50;;;19.17;48.59
56514;BME280;62152;52.078;8.414;2023-04-25T12:59:49;99887.41;;;19.16;49.09
56514;BME280;62152;52.078;8.414;2023-04-25T13:03:50;99926.66;;;19.13;48.84
56514;BME280;62152;52.078;8.414;2023-04-25T13:07:52;99955.31;;;19.12;48.75
56514;BME280;62152;52.078;8.414;2023-04-25T13:11:53;99957.28;;;19.11;49.29
56514;BME280;62152;52.078;8.414;2023-04-25T13:15:54;99931.34;;;19.12;49.30
56514;BME280;62152;52.078;8.414;2023-04-25T13:19:55;99935.72;;;19.17;49.28
56514;BME280;62152;52.078;8.414;2023-04-25T13:23:57;99933.00;;;19.21;49.10
56514;BME280;62152;52.078;8.414;2023-04-25T13:27:58;99919.28;;;19.24;49.05
56514;BME280;62152;52.078;8.414;2023-04-25T13:31:59;99922.03;;;19.24;48.94
56514;BME280;62152;52.078;8.414;2023-04-25T13:36:00;99907.09;;;19.22;48.50
56514;BME280;62152;52.078;8.414;2023-04-25T13:40:05;99914.53;;;19.21;48.99
56514;BME280;62152;52.078;8.414;2023-04-25T13:44:08;99917.28;;;19.21;48.97
56514;BME280;62152;52.078;8.414;2023-04-25T13:48:08;99907.91;;;19.22;49.20
56514;BME280;62152;52.078;8.414;2023-04-25T13:52:09;99907.09;;;19.22;49.27
56514;BME280;62152;52.078;8.414;2023-04-25T13:56:11;99907.50;;;19.24;48.80
56514;BME280;62152;52.078;8.414;2023-04-25T14:00:13;99911.44;;;19.26;49.12
56514;BME280;62152;52.078;8.414;2023-04-25T14:04:15;99914.59;;;19.28;48.48
56514;BME280;62152;52.078;8.414;2023-04-25T14:08:15;99914.25;;;19.33;48.60
56514;BME280;62152;52.078;8.414;2023-04-25T14:12:17;99914.63;;;19.32;48.42
56514;BME280;62152;52.078;8.414;2023-04-25T14:16:18;99913.84;;;19.31;48.93
56514;BME280;62152;52.078;8.414;2023-04-25T14:20:20;99924.47;;;19.33;49.00
56514;BME280;62152;52.078;8.414;2023-04-25T14:24:21;99929.16;;;19.32;48.70
56514;BME280;62152;52.078;8.414;2023-04-25T14:28:23;99936.25;;;19.33;48.98
56514;BME280;62152;52.078;8.414;2023-04-25T14:32:23;99938.22;;;19.33;48.47
56514;BME280;62152;52.078;8.414;2023-04-25T14:36:26;99929.97;;;19.33;48.41
56514;BME280;62152;52.078;8.414;2023-04-25T14:40:28;99936.25;;;19.33;48.61
56514;BME280;62152;52.078;8.414;2023-04-25T14:44:30;99944.09;;;19.31;49.02
56514;BME280;62152;52.078;8.414;2023-04-25T14:48:31;99931.56;;;19.37;48.55
56514;BME280;62152;52.078;8.414;2023-04-25T14:52:32;99939.22;;;18.73;45.20
56514;BME280;62152;52.078;8.414;2023-04-25T14:56:33;99951.00;;;17.84;44.07
56514;BME280;62152;52.078;8.414;2023-04-25T15:00:35;99959.84;;;18.26;45.09
56514;BME280;62152;52.078;8.414;2023-04-25T15:04:36;99973.66;;;18.34;46.70
56514;BME280;62152;52.078;8.414;2023-04-25T15:08:37;99982.31;;;18.36;44.73
56514;BME280;62152;52.078;8.414;2023-04-25T15:12:38;99979.19;;;18.07;46.29
56514;BME280;62152;52.078;8.414;2023-04-25T15:16:41;99970.13;;;18.33;45.34
56514;BME280;62152;52.078;8.414;2023-04-25T15:20:42;99974.03;;;18.66;45.28
56514;BME280;62152;52.078;8.414;2023-04-25T15:24:42;99971.38;;;17.83;45.08
56514;BME280;62152;52.078;8.414;2023-04-25T15:28:43;99980.72;;;17.55;44.81
56514;BME280;62152;52.078;8.414;2023-04-25T15:32:46;99981.63;;;17.63;43.17
56514;BME280;62152;52.078;8.414;2023-04-25T15:36:47;99976.91;;;18.43;44.09
56514;BME280;62152;52.078;8.414;2023-04-25T15:40:48;99981.78;;;18.56;43.91
56514;BME280;62152;52.078;8.414;2023-04-25T15:44:49;99981.38;;;18.24;44.51
56514;BME280;62152;52.078;8.414;2023-04-25T15:48:51;99983.16;;;18.73;43.94
56514;BME280;62152;52.078;8.414;2023-04-25T15:52:52;99990.66;;;19.13;43.31
56514;BME280;62152;52.078;8.414;2023-04-25T15:56:53;99985.03;;;18.99;43.84
56514;BME280;62152;52.078;8.414;2023-04-25T16:00:54;99983.03;;;18.96;44.71
56514;BME280;62152;52.078;8.414;2023-04-25T16:04:57;99990.97;;;19.05;45.21
56514;BME280;62152;52.078;8.414;2023-04-25T16:08:57;100009.47;;;19.08;45.54
56514;BME280;62152;52.078;8.414;2023-04-25T16:12:58;100018.50;;;19.08;45.79
56514;BME280;62152;52.078;8.414;2023-04-25T16:16:59;100033.84;;;19.13;46.08
56514;BME280;62152;52.078;8.414;2023-04-25T16:21:02;100025.66;;;19.17;46.54
56514;BME280;62152;52.078;8.414;2023-04-25T16:25:04;100014.69;;;19.20;46.33
56514;BME280;62152;52.078;8.414;2023-04-25T16:29:06;100021.75;;;19.21;47.01
56514;BME280;62152;52.078;8.414;2023-04-25T16:33:07;100024.94;;;19.23;47.02
56514;BME280;62152;52.078;8.414;2023-04-25T16:37:09;100022.59;;;19.22;47.00
56514;BME280;62152;52.078;8.414;2023-04-25T16:41:10;100022.59;;;19.22;47.91
56514;BME280;62152;52.078;8.414;2023-04-25T16:45:12;100014.00;;;19.30;47.71
56514;BME280;62152;52.078;8.414;2023-04-25T16:49:13;100009.31;;;19.34;47.73
56514;BME280;62152;52.078;8.414;2023-04-25T16:53:15;100002.69;;;19.35;47.55
56514;BME280;62152;52.078;8.414;2023-04-25T16:57:16;100001.47;;;19.33;48.25
56514;BME280;62152;52.078;8.414;2023-04-25T17:01:17;100006.16;;;19.32;48.06
56514;BME280;62152;52.078;8.414;2023-04-25T17:05:18;100010.09;;;19.31;48.64
56514;BME280;62152;52.078;8.414;2023-04-25T17:09:20;100018.75;;;19.33;48.32
56514;BME280;62152;52.078;8.414;2023-04-25T17:13:21;100014.16;;;19.45;48.24
56514;BME280;62152;52.078;8.414;2023-04-25T17:17:22;100024.22;;;19.71;48.33
56514;BME280;62152;52.078;8.414;2023-04-25T17:21:23;100027.88;;;19.89;47.76
56514;BME280;62152;52.078;8.414;2023-04-25T17:25:25;100035.41;;;19.95;47.34
56514;BME280;62152;52.078;8.414;2023-04-25T17:29:26;100030.31;;;19.98;47.26
56514;BME280;62152;52.078;8.414;2023-04-25T17:33:27;100034.19;;;19.89;48.18
56514;BME280;62152;52.078;8.414;2023-04-25T17:37:28;100050.44;;;19.57;47.33
56514;BME280;62152;52.078;8.414;2023-04-25T17:41:30;100044.06;;;19.50;46.10
56514;BME280;62152;52.078;8.414;2023-04-25T17:45:31;100055.81;;;19.47;45.28
56514;BME280;62152;52.078;8.414;2023-04-25T17:49:32;100055.75;;;19.39;45.90
56514;BME280;62152;52.078;8.414;2023-04-25T17:53:34;100062.00;;;19.36;46.02
56514;BME280;62152;52.078;8.414;2023-04-25T17:57:36;100062.38;;;19.35;46.02
56514;BME280;62152;52.078;8.414;2023-04-25T18:01:37;100063.50;;;19.30;46.23
56514;BME280;62152;52.078;8.414;2023-04-25T18:05:38;100064.72;;;19.33;46.21
56514;BME280;62152;52.078;8.414;2023-04-25T18:09:39;100073.75;;;19.33;46.16
56514;BME280;62152;52.078;8.414;2023-04-25T18:13:41;100066.25;;;19.30;46.19
56514;BME280;62152;52.078;8.414;2023-04-25T18:17:42;100070.97;;;19.30;46.38
56514;BME280;62152;52.078;8.414;2023-04-25T18:21:43;100072.16;;;19.29;46.84
56514;BME280;62152;52.078;8.414;2023-04-25T18:25:45;100083.16;;;19.32;47.32
56514;BME280;62152;52.078;8.414;2023-04-25T18:29:47;100086.31;;;19.34;46.78
56514;BME280;62152;52.078;8.414;2023-04-25T18:33:48;100098.94;;;19.35;47.24
56514;BME280;62152;52.078;8.414;2023-04-25T18:37:49;100099.72;;;19.36;47.96
56514;BME280;62152;52.078;8.414;2023-04-25T18:41:49;100098.94;;;19.35;47.92
56514;BME280;62152;52.078;8.414;2023-04-25T18:45:52;100103.63;;;19.35;48.06
56514;BME280;62152;52.078;8.414;2023-04-25T18:49:53;100109.50;;;19.33;47.48
56514;BME280;62152;52.078;8.414;2023-04-25T18:53:54;100115.44;;;19.35;48.12
56514;BME280;62152;52.078;8.414;2023-04-25T18:57:55;100123.69;;;19.35;48.46
56514;BME280;62152;52.078;8.414;2023-04-25T19:01:57;100136.63;;;19.35;47.97
56514;BME280;62152;52.078;8.414;2023-04-25T19:05:59;100140.19;;;19.35;48.35
56514;BME280;62152;52.078;8.414;2023-04-25T19:10:02;100142.50;;;19.33;48.21
56514;BME280;62152;52.078;8.414;2023-04-25T19:14:03;100139.75;;;19.33;48.43
56514;BME280;62152;52.078;8.414;2023-04-25T19:18:05;100140.19;;;19.35;48.20
56514;BME280;62152;52.078;8.414;2023-04-25T19:22:06;100137.84;;;19.37;47.94
56514;BME280;62152;52.078;8.414;2023-04-25T19:26:07;100150.00;;;19.36;48.60
56514;BME280;62152;52.078;8.414;2023-04-25T19:30:08;100147.63;;;19.35;48.15
56514;BME280;62152;52.078;8.414;2023-04-25T19:34:11;100155.50;;;19.36;48.11
56514;BME280;62152;52.078;8.414;2023-04-25T19:38:12;100164.16;;;19.38;48.34
56514;BME280;62152;52.078;8.414;2023-04-25T19:42:13;100169.28;;;19.40;48.36
56514;BME280;62152;52.078;8.414;2023-04-25T19:46:14;100173.25;;;19.43;48.55
56514;BME280;62152;52.078;8.414;2023-04-25T19:50:16;100171.72;;;19.45;48.01
56514;BME280;62152;52.078;8.414;2023-04-25T19:54:17;100171.75;;;19.49;48.13
56514;BME280;62152;52.078;8.414;2023-04-25T19:58:18;100170.13;;;19.44;48.70
56514;BME280;62152;52.078;8.414;2023-04-25T20:02:18;100166.16;;;19.41;47.94
56514;BME280;62152;52.078;8.414;2023-04-25T20:06:21;100176.00;;;19.43;47.64
56514;BME280;62152;52.078;8.414;2023-04-25T20:10:22;100182.66;;;19.41;47.72
56514;BME280;62152;52.078;8.414;2023-04-25T20:14:23;100178.72;;;19.39;48.08
56514;BME280;62152;52.078;8.414;2023-04-25T20:18:24;100182.25;;;19.39;48.02
56514;BME280;62152;52.078;8.414;2023-04-25T20:22:26;100185.38;;;19.38;47.95
56514;BME280;62152;52.078;8.414;2023-04-25T20:26:27;100183.41;;;19.38;48.57
56514;BME280;62152;52.078;8.414;2023-04-25T20:30:28;100190.09;;;19.37;48.44
56514;BME280;62152;52.078;8.414;2023-04-25T20:34:29;100192.84;;;19.37;48.17
56514;BME280;62152;52.078;8.414;2023-04-25T20:38:31;100192.00;;;19.33;48.23
56514;BME280;62152;52.078;8.414;2023-04-25T20:42:32;100193.94;;;19.29;48.72
56514;BME280;62152;52.078;8.414;2023-04-25T20:46:33;100197.03;;;19.28;48.18
56514;BME280;62152;52.078;8.414;2023-04-25T20:50:34;100189.16;;;19.26;48.73
56514;BME280;62152;52.078;8.414;2023-04-25T20:54:37;100186.00;;;19.24;48.81
56514;BME280;62152;52.078;8.414;2023-04-25T20:58:37;100190.72;;;19.24;48.28
56514;BME280;62152;52.078;8.414;2023-04-25T21:02:38;100190.31;;;19.22;48.20
56514;BME280;62152;52.078;8.414;2023-04-25T21:06:39;100205.19;;;19.21;48.32
56514;BME280;62152;52.078;8.414;2023-04-25T21:10:41;100201.66;;;19.20;48.46
56514;BME280;62152;52.078;8.414;2023-04-25T21:14:42;100199.28;;;19.19;48.34
56514;BME280;62152;52.078;8.414;2023-04-25T21:18:43;100206.34;;;19.16;48.66
56514;BME280;62152;52.078;8.414;2023-04-25T21:22:44;100198.88;;;19.17;48.40
56514;BME280;62152;52.078;8.414;2023-04-25T21:26:47;100200.84;;;19.16;48.49